YCOY weather

Coral Bay Airport
Western Australia, Australia

Public forecast

Using degrees Celsius for public forecast. Weather courtesy of forecast.io.

METAR (pilot weather report)

Closest report is Learmonth Airport, 56.4 nm (104.5 km) NNE. Retrieved 2019/03/26 00:00 UTC (13 minutes ago):

YPLM 260000Z AUTO 14013KT //// // NCD 31/19 Q1008

TAF (pilot weather forecast)

Forecast is more than 12 hours old.

Closest forecast is Learmonth Airport, 56.4 nm (104.5 km) NNE. Retrieved 2019/03/25 00:00 UTC (1 day ago):

TAF YPLM 252254Z 2600/2624 13012KT 9999 SCT035 BECMG 2601/2603 11018G28KT 9999 -SHRA FEW020 BKN030 FM261200 08015G25KT 9999 -RA FEW015 BKN025 FM261700 06014KT 9999 -SHRA FEW015 BKN025 TEMPO 2604/2617 2000 RA BKN010 INTER 2617/2624 5000 SHRA BKN012